Time,TemperatureF,DewpointF,PressureIn,WindDirection,WindDirectionDegrees,WindSpeedMPH,WindSpeedGustMPH,Humidity,HourlyPrecipIn,Conditions,Clouds,dailyrainin,SoftwareType,DateUTC
2013-03-27 00:02:00,32.0,24.0,-100.00,NNW,340,1.0,2.0,73,-99.99,,,-99.99,,2013-03-27 06:02:00,
2013-03-27 00:12:00,32.0,25.0,-100.00,NW,325,2.0,3.0,73,-99.99,,,-99.99,,2013-03-27 06:12:00,
2013-03-27 00:22:00,33.0,25.0,-100.00,NNE,15,0.0,1.0,73,-99.99,,,-99.99,,2013-03-27 06:22:00,
2013-03-27 00:32:00,33.0,25.0,-100.00,NNE,15,0.0,1.0,72,-99.99,,,-99.99,,2013-03-27 06:32:00,
2013-03-27 00:42:00,34.0,26.0,-100.00,ENE,70,1.0,2.0,72,-99.99,,,-99.99,,2013-03-27 06:42:00,
2013-03-27 00:52:00,33.0,25.0,-100.00,SE,130,6.0,6.0,71,-99.99,,,-99.99,,2013-03-27 06:52:00,
2013-03-27 01:02:00,33.0,25.0,-100.00,ESE,120,3.0,6.0,72,-99.99,,,-99.99,,2013-03-27 07:02:00,
2013-03-27 01:12:00,33.0,26.0,-100.00,ESE,105,2.0,6.0,72,-99.99,,,-99.99,,2013-03-27 07:12:00,
2013-03-27 01:22:00,34.0,26.0,-100.00,East,95,2.0,3.0,72,-99.99,,,-99.99,,2013-03-27 07:22:00,
2013-03-27 01:32:00,33.0,25.0,-100.00,East,95,2.0,3.0,72,-99.99,,,-99.99,,2013-03-27 07:32:00,
2013-03-27 01:42:00,32.0,25.0,-100.00,ESE,105,3.0,4.0,75,-99.99,,,-99.99,,2013-03-27 07:42:00,
2013-03-27 01:53:00,32.0,26.0,-100.00,SE,140,4.0,5.0,76,-99.99,,,-99.99,,2013-03-27 07:53:00,
2013-03-27 02:02:00,32.0,25.0,-100.00,South,175,4.0,6.0,75,-99.99,,,-99.99,,2013-03-27 08:02:00,
2013-03-27 02:12:00,32.0,25.0,-100.00,South,170,5.0,6.0,73,-99.99,,,-99.99,,2013-03-27 08:12:00,
2013-03-27 02:22:00,32.0,25.0,-100.00,SSE,160,6.0,7.0,73,-99.99,,,-99.99,,2013-03-27 08:22:00,
2013-03-27 02:32:00,32.0,25.0,-100.00,SE,125,6.0,7.0,74,-99.99,,,-99.99,,2013-03-27 08:32:00,
2013-03-27 02:43:00,31.0,24.0,-100.00,SE,125,2.0,6.0,74,-99.99,,,-99.99,,2013-03-27 08:43:00,
2013-03-27 02:52:00,31.0,24.0,-100.00,South,180,7.0,7.0,74,-99.99,,,-99.99,,2013-03-27 08:52:00,
2013-03-27 03:01:00,31.0,24.0,-100.00,SSE,160,6.0,7.0,76,-99.99,,,-99.99,,2013-03-27 09:01:00,
2013-03-27 03:12:00,31.0,24.0,-100.00,SSE,160,9.0,11.0,75,-99.99,,,-99.99,,2013-03-27 09:12:00,
2013-03-27 03:22:00,31.0,24.0,-100.00,SSE,160,7.0,10.0,75,-99.99,,,-99.99,,2013-03-27 09:22:00,
2013-03-27 03:32:00,30.0,24.0,-100.00,SSE,155,10.0,11.0,77,-99.99,,,-99.99,,2013-03-27 09:32:00,
2013-03-27 03:42:00,29.0,22.0,-100.00,SSE,165,7.0,11.0,74,-99.99,,,-99.99,,2013-03-27 09:42:00,
2013-03-27 03:52:00,28.0,22.0,-100.00,South,180,9.0,11.0,74,-99.99,,,-99.99,,2013-03-27 09:52:00,
2013-03-27 04:02:00,29.0,22.0,-100.00,SSE,165,7.0,9.0,77,-99.99,,,-99.99,,2013-03-27 10:02:00,
2013-03-27 04:12:00,28.0,22.0,-100.00,South,170,7.0,9.0,79,-99.99,,,-99.99,,2013-03-27 10:12:00,
2013-03-27 04:22:00,28.0,23.0,-100.00,SSE,165,7.0,8.0,79,-99.99,,,-99.99,,2013-03-27 10:22:00,
2013-03-27 04:32:00,28.0,23.0,-100.00,South,185,7.0,7.0,79,-99.99,,,-99.99,,2013-03-27 10:32:00,
2013-03-27 04:42:00,28.0,21.0,-100.00,South,190,7.0,8.0,77,-99.99,,,-99.99,,2013-03-27 10:42:00,
2013-03-27 04:52:00,27.0,22.0,-100.00,South,180,7.0,8.0,78,-99.99,,,-99.99,,2013-03-27 10:52:00,
2013-03-27 05:02:00,28.0,22.0,-100.00,South,180,6.0,7.0,78,-99.99,,,-99.99,,2013-03-27 11:02:00,
2013-03-27 05:12:00,28.0,23.0,-100.00,South,180,9.0,10.0,79,-99.99,,,-99.99,,2013-03-27 11:12:00,
2013-03-27 05:22:00,29.0,24.0,-100.00,South,180,9.0,11.0,80,-99.99,,,-99.99,,2013-03-27 11:22:00,
2013-03-27 05:32:00,29.0,24.0,-100.00,South,175,7.0,9.0,80,-99.99,,,-99.99,,2013-03-27 11:32:00,
2013-03-27 05:42:00,28.0,23.0,-100.00,South,175,4.0,7.0,80,-99.99,,,-99.99,,2013-03-27 11:42:00,
2013-03-27 05:52:00,27.0,22.0,-100.00,SSE,150,3.0,5.0,82,-99.99,,,-99.99,,2013-03-27 11:52:00,
2013-03-27 06:02:00,26.0,22.0,-100.00,SE,130,3.0,5.0,83,-99.99,,,-99.99,,2013-03-27 12:02:00,
2013-03-27 06:12:00,27.0,23.0,-100.00,South,175,4.0,5.0,84,-99.99,,,-99.99,,2013-03-27 12:12:00,
2013-03-27 06:22:00,29.0,25.0,-100.00,South,175,7.0,9.0,85,-99.99,,,-99.99,,2013-03-27 12:22:00,
2013-03-27 06:32:00,29.0,25.0,-100.00,SE,125,5.0,8.0,85,-99.99,,,-99.99,,2013-03-27 12:32:00,
2013-03-27 06:42:00,29.0,25.0,-100.00,South,180,4.0,7.0,86,-99.99,,,-99.99,,2013-03-27 12:42:00,
2013-03-27 06:52:00,29.0,25.0,-100.00,South,190,7.0,9.0,86,-99.99,,,-99.99,,2013-03-27 12:52:00,
2013-03-27 07:02:00,28.0,25.0,-100.00,South,185,6.0,9.0,86,-99.99,,,-99.99,,2013-03-27 13:02:00,
2013-03-27 07:12:00,28.0,25.0,-100.00,South,190,6.0,6.0,86,-99.99,,,-99.99,,2013-03-27 13:12:00,
2013-03-27 07:22:00,29.0,25.0,-100.00,SSW,195,4.0,6.0,86,-99.99,,,-99.99,,2013-03-27 13:22:00,
2013-03-27 07:32:00,29.0,26.0,-100.00,South,175,4.0,6.0,87,-99.99,,,-99.99,,2013-03-27 13:32:00,
2013-03-27 07:42:00,31.0,27.0,-100.00,SSE,155,4.0,6.0,86,-99.99,,,-99.99,,2013-03-27 13:42:00,
2013-03-27 07:52:00,30.0,26.0,-100.00,ESE,105,5.0,6.0,86,-99.99,,,-99.99,,2013-03-27 13:52:00,
2013-03-27 08:02:00,29.0,26.0,-100.00,ESE,115,4.0,5.0,86,-99.99,,,-99.99,,2013-03-27 14:02:00,
2013-03-27 08:12:00,31.0,28.0,-100.00,SE,140,3.0,4.0,87,-99.99,,,-99.99,,2013-03-27 14:12:00,
2013-03-27 08:22:00,31.0,27.0,-100.00,SE,130,4.0,4.0,82,-99.99,,,-99.99,,2013-03-27 14:22:00,
2013-03-27 08:32:00,32.0,27.0,-100.00,East,80,2.0,3.0,79,-99.99,,,-99.99,,2013-03-27 14:32:00,
2013-03-27 08:42:00,33.0,28.0,-100.00,South,190,3.0,4.0,79,-99.99,,,-99.99,,2013-03-27 14:42:00,
2013-03-27 08:52:00,33.0,28.0,-100.00,South,190,3.0,4.0,79,-99.99,,,-99.99,,2013-03-27 14:52:00,
2013-03-27 09:02:00,37.0,30.0,-100.00,South,185,4.0,4.0,76,-99.99,,,-99.99,,2013-03-27 15:02:00,
2013-03-27 09:12:00,37.0,29.0,-100.00,South,190,5.0,6.0,71,-99.99,,,-99.99,,2013-03-27 15:12:00,
2013-03-27 09:22:00,39.0,28.0,-100.00,SSE,165,3.0,6.0,66,-99.99,,,-99.99,,2013-03-27 15:22:00,
2013-03-27 09:33:00,39.0,28.0,-100.00,SE,145,3.0,5.0,64,-99.99,,,-99.99,,2013-03-27 15:33:00,
2013-03-27 09:42:00,41.0,28.0,-100.00,SE,145,3.0,4.0,60,-99.99,,,-99.99,,2013-03-27 15:42:00,
2013-03-27 09:52:00,39.0,27.0,-100.00,ESE,120,3.0,4.0,60,-99.99,,,-99.99,,2013-03-27 15:52:00,
2013-03-27 10:02:00,38.0,27.0,-100.00,ESE,120,5.0,6.0,64,-99.99,,,-99.99,,2013-03-27 16:02:00,
2013-03-27 10:12:00,39.0,28.0,-100.00,ESE,115,4.0,6.0,64,-99.99,,,-99.99,,2013-03-27 16:12:00,
2013-03-27 10:22:00,39.0,28.0,-100.00,ESE,120,4.0,6.0,64,-99.99,,,-99.99,,2013-03-27 16:22:00,
2013-03-27 10:32:00,40.0,28.0,-100.00,SE,130,4.0,6.0,62,-99.99,,,-99.99,,2013-03-27 16:32:00,
2013-03-27 10:42:00,41.0,29.0,-100.00,East,85,2.0,4.0,59,-99.99,,,-99.99,,2013-03-27 16:42:00,
2013-03-27 10:52:00,41.0,28.0,-100.00,ESE,105,5.0,6.0,60,-99.99,,,-99.99,,2013-03-27 16:52:00,
2013-03-27 11:02:00,40.0,29.0,-100.00,ESE,105,4.0,7.0,64,-99.99,,,-99.99,,2013-03-27 17:02:00,
2013-03-27 11:12:00,40.0,29.0,-100.00,ESE,120,6.0,7.0,64,-99.99,,,-99.99,,2013-03-27 17:12:00,
2013-03-27 11:22:00,41.0,29.0,-100.00,SE,125,4.0,7.0,63,-99.99,,,-99.99,,2013-03-27 17:22:00,
2013-03-27 11:32:00,41.0,29.0,-100.00,ESE,115,4.0,6.0,61,-99.99,,,-99.99,,2013-03-27 17:32:00,
2013-03-27 11:44:00,43.0,29.0,-100.00,ESE,110,4.0,6.0,59,-99.99,,,-99.99,,2013-03-27 17:44:00,
2013-03-27 11:52:00,42.0,29.0,-100.00,East,90,5.0,6.0,59,-99.99,,,-99.99,,2013-03-27 17:52:00,
2013-03-27 12:02:00,41.0,29.0,-100.00,East,90,6.0,7.0,60,-99.99,,,-99.99,,2013-03-27 18:02:00,
2013-03-27 12:12:00,42.0,29.0,-100.00,East,95,4.0,7.0,60,-99.99,,,-99.99,,2013-03-27 18:12:00,
2013-03-27 12:22:00,43.0,29.0,-100.00,East,95,4.0,6.0,58,-99.99,,,-99.99,,2013-03-27 18:22:00,
2013-03-27 12:32:00,43.0,29.0,-100.00,East,95,6.0,6.0,57,-99.99,,,-99.99,,2013-03-27 18:32:00,
2013-03-27 12:42:00,42.0,29.0,-100.00,East,95,6.0,7.0,59,-99.99,,,-99.99,,2013-03-27 18:42:00,
2013-03-27 12:52:00,44.0,30.0,-100.00,East,80,4.0,7.0,59,-99.99,,,-99.99,,2013-03-27 18:52:00,
2013-03-27 13:02:00,43.0,30.0,-100.00,East,85,6.0,7.0,58,-99.99,,,-99.99,,2013-03-27 19:02:00,
2013-03-27 13:12:00,44.0,30.0,-100.00,East,80,6.0,7.0,58,-99.99,,,-99.99,,2013-03-27 19:12:00,
2013-03-27 13:21:00,44.0,30.0,-100.00,East,80,6.0,7.0,57,-99.99,,,-99.99,,2013-03-27 19:21:00,
2013-03-27 13:32:00,45.0,30.0,-100.00,ENE,60,6.0,7.0,56,-99.99,,,-99.99,,2013-03-27 19:32:00,
2013-03-27 13:42:00,45.0,30.0,-100.00,NE,55,6.0,9.0,55,-99.99,,,-99.99,,2013-03-27 19:42:00,
2013-03-27 13:52:00,45.0,30.0,-100.00,ENE,75,6.0,9.0,56,-99.99,,,-99.99,,2013-03-27 19:52:00,
2013-03-27 14:02:00,44.0,30.0,-100.00,ENE,70,7.0,10.0,57,-99.99,,,-99.99,,2013-03-27 20:02:00,
2013-03-27 14:12:00,45.0,31.0,-100.00,NE,45,6.0,9.0,57,-99.99,,,-99.99,,2013-03-27 20:12:00,
2013-03-27 14:22:00,45.0,31.0,-100.00,ENE,65,8.0,9.0,56,-99.99,,,-99.99,,2013-03-27 20:22:00,
2013-03-27 14:32:00,45.0,30.0,-100.00,ENE,60,7.0,9.0,55,-99.99,,,-99.99,,2013-03-27 20:32:00,
2013-03-27 14:42:00,45.0,30.0,-100.00,NE,55,7.0,9.0,54,-99.99,,,-99.99,,2013-03-27 20:42:00,
2013-03-27 14:52:00,45.0,29.0,-100.00,NE,55,7.0,9.0,53,-99.99,,,-99.99,,2013-03-27 20:52:00,
2013-03-27 15:02:00,46.0,29.0,-100.00,NE,50,7.0,9.0,51,-99.99,,,-99.99,,2013-03-27 21:02:00,
2013-03-27 15:12:00,46.0,29.0,-100.00,ENE,65,8.0,9.0,52,-99.99,,,-99.99,,2013-03-27 21:12:00,
2013-03-27 15:22:00,46.0,29.0,-100.00,East,80,7.0,11.0,52,-99.99,,,-99.99,,2013-03-27 21:22:00,
2013-03-27 15:32:00,45.0,30.0,-100.00,East,80,9.0,12.0,55,-99.99,,,-99.99,,2013-03-27 21:32:00,
2013-03-27 15:43:00,45.0,30.0,-100.00,ENE,75,9.0,12.0,55,-99.99,,,-99.99,,2013-03-27 21:43:00,
2013-03-27 15:52:00,46.0,31.0,-100.00,ENE,65,8.0,10.0,54,-99.99,,,-99.99,,2013-03-27 21:52:00,
2013-03-27 16:03:00,46.0,31.0,-100.00,NE,50,6.0,10.0,54,-99.99,,,-99.99,,2013-03-27 22:03:00,
2013-03-27 16:12:00,47.0,31.0,-100.00,NE,45,5.0,9.0,53,-99.99,,,-99.99,,2013-03-27 22:12:00,
2013-03-27 16:23:00,47.0,31.0,-100.00,NE,50,6.0,9.0,52,-99.99,,,-99.99,,2013-03-27 22:23:00,
2013-03-27 16:33:00,48.0,31.0,-100.00,NE,55,6.0,9.0,51,-99.99,,,-99.99,,2013-03-27 22:33:00,
2013-03-27 16:42:00,47.0,30.0,-100.00,NE,50,6.0,9.0,50,-99.99,,,-99.99,,2013-03-27 22:42:00,
2013-03-27 16:52:00,47.0,28.0,-100.00,NE,50,7.0,9.0,46,-99.99,,,-99.99,,2013-03-27 22:52:00,
2013-03-27 17:02:00,47.0,28.0,-100.00,NE,55,7.0,9.0,46,-99.99,,,-99.99,,2013-03-27 23:02:00,
2013-03-27 17:12:00,46.0,27.0,-100.00,NE,55,7.0,11.0,46,-99.99,,,-99.99,,2013-03-27 23:12:00,
2013-03-27 17:22:00,46.0,26.0,-100.00,NE,45,7.0,11.0,44,-99.99,,,-99.99,,2013-03-27 23:22:00,
2013-03-27 17:32:00,46.0,27.0,-100.00,NE,45,8.0,11.0,46,-99.99,,,-99.99,,2013-03-27 23:32:00,
2013-03-27 17:42:00,46.0,27.0,-100.00,NE,45,7.0,10.0,48,-99.99,,,-99.99,,2013-03-27 23:42:00,
2013-03-27 17:52:00,46.0,29.0,-100.00,NE,45,6.0,9.0,50,-99.99,,,-99.99,,2013-03-27 23:52:00,
2013-03-27 18:02:00,45.0,27.0,-100.00,NE,40,7.0,12.0,49,-99.99,,,-99.99,,2013-03-28 00:02:00,
2013-03-27 18:12:00,45.0,28.0,-100.00,NE,35,6.0,8.0,49,-99.99,,,-99.99,,2013-03-28 00:12:00,
2013-03-27 18:22:00,45.0,27.0,-100.00,NE,40,6.0,10.0,48,-99.99,,,-99.99,,2013-03-28 00:22:00,
2013-03-27 18:32:00,44.0,27.0,-100.00,NE,35,6.0,9.0,49,-99.99,,,-99.99,,2013-03-28 00:32:00,
2013-03-27 18:42:00,44.0,27.0,-100.00,NE,45,6.0,9.0,50,-99.99,,,-99.99,,2013-03-28 00:42:00,
2013-03-27 18:52:00,43.0,27.0,-100.00,NE,35,4.0,9.0,52,-99.99,,,-99.99,,2013-03-28 00:52:00,
2013-03-27 19:02:00,43.0,28.0,-100.00,NNE,30,5.0,7.0,54,-99.99,,,-99.99,,2013-03-28 01:02:00,
2013-03-27 19:12:00,42.0,28.0,-100.00,NE,55,4.0,7.0,56,-99.99,,,-99.99,,2013-03-28 01:12:00,
2013-03-27 19:22:00,41.0,28.0,-100.00,East,80,5.0,6.0,60,-99.99,,,-99.99,,2013-03-28 01:22:00,
2013-03-27 19:32:00,40.0,28.0,-100.00,ENE,70,7.0,10.0,61,-99.99,,,-99.99,,2013-03-28 01:32:00,
2013-03-27 19:42:00,39.0,28.0,-100.00,NE,50,4.0,9.0,64,-99.99,,,-99.99,,2013-03-28 01:42:00,
2013-03-27 19:52:00,39.0,29.0,-100.00,ENE,70,6.0,9.0,66,-99.99,,,-99.99,,2013-03-28 01:52:00,
2013-03-27 20:02:00,40.0,29.0,-100.00,ENE,65,8.0,11.0,66,-99.99,,,-99.99,,2013-03-28 02:02:00,
2013-03-27 20:12:00,40.0,29.0,-100.00,ENE,65,8.0,11.0,66,-99.99,,,-99.99,,2013-03-28 02:12:00,
2013-03-27 20:22:00,39.0,30.0,-100.00,NE,35,7.0,12.0,68,-99.99,,,-99.99,,2013-03-28 02:22:00,
2013-03-27 20:32:00,39.0,30.0,-100.00,NE,40,9.0,12.0,69,-99.99,,,-99.99,,2013-03-28 02:32:00,
2013-03-27 20:42:00,39.0,30.0,-100.00,NE,40,9.0,12.0,69,-99.99,,,-99.99,,2013-03-28 02:42:00,
2013-03-27 20:52:00,39.0,30.0,-100.00,NE,40,9.0,12.0,69,-99.99,,,-99.99,,2013-03-28 02:52:00,
2013-03-27 21:02:00,38.0,29.0,-100.00,NE,35,4.0,9.0,71,-99.99,,,-99.99,,2013-03-28 03:02:00,
2013-03-27 21:12:00,38.0,30.0,-100.00,NNE,30,4.0,8.0,73,-99.99,,,-99.99,,2013-03-28 03:12:00,
2013-03-27 21:22:00,37.0,30.0,-100.00,NE,50,4.0,7.0,73,-99.99,,,-99.99,,2013-03-28 03:22:00,
2013-03-27 21:33:00,37.0,30.0,-100.00,NE,45,6.0,7.0,75,-99.99,,,-99.99,,2013-03-28 03:33:00,
2013-03-27 21:42:00,37.0,30.0,-100.00,ENE,60,4.0,9.0,75,-99.99,,,-99.99,,2013-03-28 03:42:00,
2013-03-27 21:52:00,36.0,30.0,-100.00,NE,45,3.0,6.0,77,-99.99,,,-99.99,,2013-03-28 03:52:00,
2013-03-27 22:02:00,35.0,28.0,-100.00,NNE,20,0.0,4.0,74,-99.99,,,-99.99,,2013-03-28 04:02:00,
2013-03-27 22:12:00,35.0,29.0,-100.00,East,95,2.0,3.0,78,-99.99,,,-99.99,,2013-03-28 04:12:00,
2013-03-27 22:22:00,35.0,29.0,-100.00,ENE,75,7.0,9.0,78,-99.99,,,-99.99,,2013-03-28 04:22:00,
2013-03-27 22:32:00,35.0,29.0,-100.00,ENE,70,7.0,10.0,79,-99.99,,,-99.99,,2013-03-28 04:32:00,
2013-03-27 22:42:00,34.0,29.0,-100.00,ENE,65,6.0,9.0,80,-99.99,,,-99.99,,2013-03-28 04:42:00,
2013-03-27 22:52:00,34.0,28.0,-100.00,NNW,330,2.0,7.0,81,-99.99,,,-99.99,,2013-03-28 04:52:00,
2013-03-27 23:02:00,33.0,28.0,-100.00,North,10,2.0,3.0,81,-99.99,,,-99.99,,2013-03-28 05:02:00,
2013-03-27 23:12:00,34.0,29.0,-100.00,NE,55,4.0,5.0,82,-99.99,,,-99.99,,2013-03-28 05:12:00,
2013-03-27 23:22:00,33.0,28.0,-100.00,ENE,75,4.0,6.0,82,-99.99,,,-99.99,,2013-03-28 05:22:00,
2013-03-27 23:32:00,33.0,28.0,-100.00,ESE,110,7.0,7.0,83,-99.99,,,-99.99,,2013-03-28 05:32:00,
2013-03-27 23:42:00,32.0,28.0,-100.00,ESE,115,9.0,10.0,84,-99.99,,,-99.99,,2013-03-28 05:42:00,
2013-03-27 23:52:00,32.0,28.0,-100.00,ESE,115,10.0,11.0,84,-99.99,,,-99.99,,2013-03-28 05:52:00,